createdAt,value
2018-07-25T00:00:42.977Z,19.57
2018-07-25T00:03:13.243Z,18.73
2018-07-25T00:05:43.473Z,18.60
2018-07-25T00:08:13.729Z,18.80
2018-07-25T00:10:49.891Z,18.57
2018-07-25T00:13:20.269Z,19.33
2018-07-25T00:15:50.493Z,18.80
2018-07-25T00:18:20.725Z,19.63
2018-07-25T00:20:51.010Z,20.03
2018-07-25T00:23:21.288Z,18.40
2018-07-25T00:25:51.540Z,18.87
2018-07-25T00:28:21.776Z,20.03
2018-07-25T00:30:52.029Z,19.60
2018-07-25T00:33:22.323Z,20.07
2018-07-25T00:35:52.560Z,20.50
2018-07-25T00:38:22.833Z,20.00
2018-07-25T00:40:53.171Z,18.80
2018-07-25T00:43:23.485Z,20.70
2018-07-25T00:45:53.786Z,18.30
2018-07-25T00:48:24.394Z,17.83
2018-07-25T00:50:54.618Z,18.17
2018-07-25T00:53:24.884Z,18.37
2018-07-25T00:55:55.131Z,16.80
2018-07-25T00:58:25.417Z,17.80
2018-07-25T01:00:55.731Z,19.03
2018-07-25T01:03:26.010Z,16.10
2018-07-25T01:05:56.281Z,19.50
2018-07-25T01:08:26.513Z,18.13
2018-07-25T01:10:56.714Z,18.40
2018-07-25T01:13:27.163Z,18.33
2018-07-25T01:15:57.380Z,17.33
2018-07-25T01:18:27.608Z,18.23
2018-07-25T01:20:57.855Z,18.23
2018-07-25T01:23:28.128Z,18.50
2018-07-25T01:25:58.385Z,18.47
2018-07-25T01:28:28.599Z,18.13
2018-07-25T01:30:58.833Z,18.43
2018-07-25T01:33:29.088Z,18.73
2018-07-25T01:35:59.311Z,19.60
2018-07-25T01:38:29.533Z,19.03
2018-07-25T01:40:59.930Z,18.93
2018-07-25T01:43:30.291Z,17.97
2018-07-25T01:46:00.491Z,18.27
2018-07-25T01:48:30.869Z,19.13
2018-07-25T01:51:01.096Z,20.43
2018-07-25T01:53:31.324Z,18.83
2018-07-25T01:56:01.553Z,18.30
2018-07-25T01:58:31.823Z,19.73
2018-07-25T02:01:02.072Z,19.20
2018-07-25T02:03:32.370Z,20.87
2018-07-25T02:06:02.620Z,20.10
2018-07-25T02:08:32.856Z,19.97
2018-07-25T02:11:03.158Z,19.87
2018-07-25T02:13:33.413Z,18.87
2018-07-25T02:16:03.659Z,19.43
2018-07-25T02:18:33.936Z,18.10
2018-07-25T02:21:04.207Z,20.47
2018-07-25T02:23:34.469Z,18.97
2018-07-25T02:26:04.758Z,19.43
2018-07-25T02:28:35.118Z,19.57
2018-07-25T02:31:05.350Z,19.07
2018-07-25T02:33:40.906Z,19.30
2018-07-25T02:36:11.149Z,18.83
2018-07-25T02:38:41.432Z,20.70
2018-07-25T02:41:11.695Z,18.83
2018-07-25T02:43:41.971Z,19.93
2018-07-25T02:46:12.216Z,20.93
2018-07-25T02:48:42.699Z,19.50
2018-07-25T02:51:12.962Z,19.70
2018-07-25T02:53:43.221Z,19.67
2018-07-25T02:56:13.476Z,18.43
2018-07-25T02:58:43.803Z,18.83
2018-07-25T03:01:14.121Z,18.50
2018-07-25T03:03:44.364Z,18.40
2018-07-25T03:06:14.621Z,19.33
2018-07-25T03:08:44.893Z,20.23
2018-07-25T03:11:15.177Z,18.03
2018-07-25T03:13:45.548Z,19.87
2018-07-25T03:16:15.809Z,19.17
2018-07-25T03:18:46.094Z,19.00
2018-07-25T03:21:16.401Z,20.73
2018-07-25T03:23:46.646Z,20.20
2018-07-25T03:26:16.864Z,20.97
2018-07-25T03:28:47.228Z,19.30
2018-07-25T03:31:17.662Z,19.77
2018-07-25T03:33:47.906Z,21.00
2018-07-25T03:36:18.160Z,19.07
2018-07-25T03:38:48.414Z,19.83
2018-07-25T03:41:18.664Z,19.87
2018-07-25T03:43:48.962Z,20.90
2018-07-25T03:46:19.209Z,21.00
2018-07-25T03:48:49.793Z,19.43
2018-07-25T03:51:20.053Z,19.93
2018-07-25T03:53:50.334Z,19.50
2018-07-25T03:56:20.630Z,18.60
2018-07-25T03:58:50.871Z,19.13
2018-07-25T04:01:21.133Z,19.90
2018-07-25T04:03:51.370Z,24.10
2018-07-25T04:06:21.640Z,20.07
2018-07-25T04:08:51.937Z,19.93
2018-07-25T04:11:22.261Z,18.50
2018-07-25T04:13:52.626Z,18.67
2018-07-25T04:16:22.925Z,19.67
2018-07-25T04:18:53.204Z,19.87
2018-07-25T04:21:23.482Z,18.80
2018-07-25T04:23:53.768Z,18.30
2018-07-25T04:26:24.029Z,17.73
2018-07-25T04:28:54.394Z,19.67
2018-07-25T04:31:24.811Z,19.27
2018-07-25T04:33:55.074Z,20.83
2018-07-25T04:36:25.399Z,20.93
2018-07-25T04:38:55.709Z,19.53
2018-07-25T04:41:25.955Z,20.17
2018-07-25T04:43:56.257Z,20.23
2018-07-25T04:46:26.711Z,20.47
2018-07-25T04:48:56.943Z,20.30
2018-07-25T04:51:27.213Z,20.67
2018-07-25T04:53:57.500Z,20.27
2018-07-25T04:56:27.768Z,19.93
2018-07-25T04:58:58.129Z,20.50
2018-07-25T05:01:28.461Z,20.07
2018-07-25T05:03:58.849Z,19.20
2018-07-25T05:06:29.176Z,20.43
2018-07-25T05:08:59.535Z,18.80
2018-07-25T05:11:29.791Z,18.93
2018-07-25T05:14:00.143Z,19.30
2018-07-25T05:16:30.404Z,19.13
2018-07-25T05:19:00.683Z,20.43
2018-07-25T05:21:31.051Z,18.97
2018-07-25T05:24:01.552Z,18.67
2018-07-25T05:26:31.911Z,19.60
2018-07-25T05:29:02.312Z,19.50
2018-07-25T05:31:32.583Z,19.67
2018-07-25T05:34:02.865Z,20.40
2018-07-25T05:36:33.173Z,18.90
2018-07-25T05:39:04.105Z,19.70
2018-07-25T05:41:34.377Z,18.57
2018-07-25T05:44:04.697Z,19.27
2018-07-25T05:46:35.033Z,19.80
2018-07-25T05:49:05.712Z,19.57
2018-07-25T05:51:36.528Z,18.90
2018-07-25T05:54:06.969Z,18.83
2018-07-25T05:56:37.430Z,19.50
2018-07-25T05:59:07.909Z,20.23
2018-07-25T06:01:38.195Z,19.60
2018-07-25T06:04:08.624Z,17.20
2018-07-25T06:06:38.960Z,18.20
2018-07-25T06:09:10.352Z,18.67
2018-07-25T06:11:40.673Z,20.23
2018-07-25T06:14:10.952Z,19.87
2018-07-25T06:16:41.320Z,18.63
2018-07-25T06:19:11.698Z,17.73
2018-07-25T06:21:41.984Z,18.77
2018-07-25T06:24:12.357Z,17.60
2018-07-25T06:26:42.688Z,17.73
2018-07-25T06:29:13.109Z,17.53
2018-07-25T06:31:43.496Z,21.17
2018-07-25T06:34:14.106Z,19.23
2018-07-25T06:36:44.531Z,23.33
2018-07-25T06:39:14.897Z,37.70
2018-07-25T06:41:45.875Z,43.17
2018-07-25T06:44:16.373Z,18.37
2018-07-25T06:46:46.749Z,17.30
2018-07-25T06:49:17.127Z,16.40
2018-07-25T06:51:47.461Z,19.07
2018-07-25T06:54:17.857Z,16.60
2018-07-25T06:56:48.192Z,15.80
2018-07-25T06:59:18.469Z,22.63
2018-07-25T07:01:48.915Z,15.00
2018-07-25T07:04:19.233Z,14.10
2018-07-25T07:06:49.631Z,11.63
2018-07-25T07:09:19.941Z,10.60
2018-07-25T07:11:50.244Z,9.80
2018-07-25T07:14:20.566Z,10.30
2018-07-25T07:16:50.833Z,9.10
2018-07-25T07:19:21.285Z,8.63
2018-07-25T07:21:51.652Z,8.80
2018-07-25T07:24:22.049Z,9.00
2018-07-25T07:26:52.322Z,9.30
2018-07-25T07:29:25.208Z,10.07
2018-07-25T07:31:55.498Z,8.90
2018-07-25T07:34:26.197Z,9.20
2018-07-25T07:36:56.541Z,8.83
2018-07-25T07:39:26.862Z,9.80
2018-07-25T07:41:57.171Z,8.70
2018-07-25T07:44:27.611Z,9.77
2018-07-25T07:46:58.644Z,9.23
2018-07-25T07:49:28.973Z,9.80
2018-07-25T07:51:59.395Z,8.50
2018-07-25T07:54:29.700Z,11.70
2018-07-25T07:57:00.040Z,8.17
2018-07-25T07:59:30.424Z,8.37
2018-07-25T08:02:00.753Z,8.13
2018-07-25T08:04:31.126Z,8.53
2018-07-25T08:07:01.467Z,9.40
2018-07-25T08:09:31.780Z,8.03
2018-07-25T08:12:02.116Z,8.70
2018-07-25T08:14:32.434Z,8.33
2018-07-25T08:17:02.775Z,8.73
2018-07-25T08:19:32.800Z,7.80
2018-07-25T08:22:03.204Z,7.10
2018-07-25T08:24:33.201Z,7.90
2018-07-25T08:27:03.476Z,8.53
2018-07-25T08:29:33.824Z,8.33
2018-07-25T08:32:04.105Z,8.13
2018-07-25T08:34:34.522Z,7.63
2018-07-25T08:37:04.932Z,8.13
2018-07-25T08:39:35.293Z,8.27
2018-07-25T08:42:05.652Z,8.20
2018-07-25T08:44:35.957Z,9.17
2018-07-25T08:47:06.492Z,8.83
2018-07-25T08:49:36.859Z,10.63
2018-07-25T08:52:07.184Z,8.23
2018-07-25T08:54:37.491Z,8.17
2018-07-25T08:57:07.833Z,7.90
2018-07-25T08:59:38.160Z,8.73
2018-07-25T09:02:08.495Z,8.10
2018-07-25T09:04:38.792Z,8.70
2018-07-25T09:07:09.097Z,8.33
2018-07-25T09:09:39.496Z,7.97
2018-07-25T09:12:09.786Z,7.50
2018-07-25T09:14:39.760Z,8.10
2018-07-25T09:17:09.999Z,8.30
2018-07-25T09:19:40.358Z,8.30
2018-07-25T09:22:10.660Z,8.10
2018-07-25T09:24:41.060Z,7.87
2018-07-25T09:27:11.331Z,16.33
2018-07-25T09:29:41.283Z,8.10
2018-07-25T09:32:11.513Z,9.03
2018-07-25T09:34:41.818Z,10.23
2018-07-25T09:37:12.061Z,7.90
2018-07-25T09:39:42.329Z,7.93
2018-07-25T09:42:12.556Z,8.33
2018-07-25T09:44:42.893Z,8.60
2018-07-25T09:47:13.175Z,8.17
2018-07-25T09:49:43.517Z,8.20
2018-07-25T09:52:13.800Z,8.40
2018-07-25T09:54:44.142Z,9.80
2018-07-25T09:57:14.417Z,9.17
2018-07-25T09:59:44.815Z,8.50
2018-07-25T10:02:15.115Z,8.70
2018-07-25T10:04:45.428Z,7.97
2018-07-25T10:07:15.901Z,8.20
2018-07-25T10:09:46.172Z,8.53
2018-07-25T10:12:16.822Z,8.13
2018-07-25T10:14:47.176Z,8.20
2018-07-25T10:17:17.951Z,7.67
2018-07-25T10:19:48.266Z,8.53
2018-07-25T10:22:18.668Z,8.00
2018-07-25T10:24:50.735Z,10.03
2018-07-25T10:27:21.189Z,9.23
2018-07-25T10:29:51.386Z,7.67
2018-07-25T10:32:21.689Z,7.57
2018-07-25T10:34:51.973Z,6.63
2018-07-25T10:37:22.394Z,9.33
2018-07-25T10:39:52.768Z,5.90
2018-07-25T10:42:23.015Z,7.00
2018-07-25T10:44:53.388Z,6.60
2018-07-25T10:47:23.675Z,5.93
2018-07-25T10:49:54.101Z,7.20
2018-07-25T10:52:24.349Z,7.70
2018-07-25T10:54:54.645Z,8.63
2018-07-25T10:57:24.917Z,8.50
2018-07-25T10:59:55.258Z,11.67
2018-07-25T11:02:25.660Z,7.80
2018-07-25T11:04:55.913Z,8.63
2018-07-25T11:07:26.384Z,7.67
2018-07-25T11:09:56.716Z,8.50
2018-07-25T11:12:27.076Z,8.33
2018-07-25T11:14:57.461Z,12.07
2018-07-25T11:17:27.785Z,7.50
2018-07-25T11:19:58.089Z,6.90
2018-07-25T11:22:28.424Z,7.63
2018-07-25T11:24:58.711Z,8.03
2018-07-25T11:27:29.505Z,14.00
2018-07-25T11:29:59.932Z,8.10
2018-07-25T11:32:31.045Z,8.27
2018-07-25T11:35:01.387Z,9.03
2018-07-25T11:37:31.806Z,9.47
2018-07-25T11:40:02.214Z,9.33
2018-07-25T11:42:32.605Z,7.83
2018-07-25T11:45:03.122Z,11.50
2018-07-25T11:47:33.394Z,9.43
2018-07-25T11:50:03.822Z,8.47
2018-07-25T11:52:34.140Z,9.03
2018-07-25T11:55:04.898Z,9.10
2018-07-25T11:57:35.234Z,9.80
2018-07-25T12:00:06.465Z,8.73
2018-07-25T12:02:36.845Z,9.07
2018-07-25T12:05:07.056Z,9.53
2018-07-25T12:07:37.316Z,9.47
2018-07-25T12:10:07.726Z,11.10
2018-07-25T12:12:38.096Z,8.17
2018-07-25T12:15:10.559Z,8.60
2018-07-25T12:17:41.163Z,7.80
2018-07-25T12:20:11.612Z,7.50
2018-07-25T12:22:42.740Z,11.00
2018-07-25T12:25:13.210Z,9.03
2018-07-25T12:27:44.096Z,9.20
2018-07-25T12:30:14.796Z,9.37
2018-07-25T12:32:45.127Z,10.50
2018-07-25T12:35:15.487Z,9.03
2018-07-25T12:37:45.778Z,11.03
2018-07-25T12:40:16.173Z,10.23
2018-07-25T12:45:23.901Z,8.90
2018-07-25T12:47:54.236Z,8.30
2018-07-25T12:50:24.583Z,11.67
2018-07-25T12:52:55.136Z,9.80
2018-07-25T12:55:25.546Z,26.80
2018-07-25T12:57:55.856Z,19.07
2018-07-25T13:00:26.141Z,15.43
2018-07-25T13:02:56.541Z,9.03
2018-07-25T13:05:26.806Z,9.13
2018-07-25T13:07:57.140Z,10.80
2018-07-25T13:10:27.507Z,16.20
2018-07-25T13:12:57.875Z,7.77
2018-07-25T13:15:28.229Z,10.83
2018-07-25T13:17:58.580Z,9.63
2018-07-25T13:20:28.920Z,8.70
2018-07-25T13:22:59.266Z,9.50
2018-07-25T13:25:29.630Z,8.23
2018-07-25T13:27:59.994Z,7.90
2018-07-25T13:30:30.338Z,8.80
2018-07-25T13:33:00.783Z,8.43
2018-07-25T13:35:31.118Z,9.87
2018-07-25T13:38:01.433Z,8.40
2018-07-25T13:40:31.801Z,8.53
2018-07-25T13:43:02.113Z,12.13
2018-07-25T13:45:32.596Z,10.30
2018-07-25T13:48:02.852Z,12.37
2018-07-25T13:50:33.204Z,18.93
2018-07-25T13:53:03.933Z,13.00
2018-07-25T13:55:34.258Z,11.87
2018-07-25T13:58:04.637Z,22.30
2018-07-25T14:00:35.048Z,11.33
2018-07-25T14:03:05.538Z,11.43
2018-07-25T14:05:35.864Z,11.47
2018-07-25T14:08:06.448Z,9.93
2018-07-25T14:10:36.930Z,13.80
2018-07-25T14:13:07.381Z,8.90
2018-07-25T14:15:38.462Z,9.10
2018-07-25T14:18:08.938Z,12.90
2018-07-25T14:20:39.276Z,12.07
2018-07-25T14:23:09.556Z,16.00
2018-07-25T14:25:39.889Z,15.63
2018-07-25T14:28:10.169Z,10.90
2018-07-25T14:30:40.613Z,14.10
2018-07-25T14:33:10.871Z,14.10
2018-07-25T14:35:41.234Z,9.90
2018-07-25T14:38:11.617Z,9.90
2018-07-25T14:40:42.025Z,12.97
2018-07-25T14:43:12.401Z,25.43
2018-07-25T14:45:42.695Z,12.27
2018-07-25T14:48:13.056Z,10.57
2018-07-25T14:50:43.387Z,11.23
2018-07-25T14:53:13.740Z,11.03
2018-07-25T14:55:44.057Z,13.93
2018-07-25T14:58:14.416Z,11.10
2018-07-25T15:00:44.793Z,13.70
2018-07-25T15:03:15.220Z,20.73
2018-07-25T15:05:45.678Z,20.10
2018-07-25T15:08:16.039Z,18.83
2018-07-25T15:10:46.458Z,11.47
2018-07-25T15:13:16.753Z,10.80
2018-07-25T15:15:46.872Z,10.80
2018-07-25T15:18:17.208Z,10.03
2018-07-25T15:20:47.633Z,11.17
2018-07-25T15:23:34.768Z,9.43
2018-07-25T15:26:05.132Z,10.67
2018-07-25T15:28:35.422Z,12.00
2018-07-25T15:31:05.881Z,11.67
2018-07-25T15:33:36.218Z,9.60
2018-07-25T15:36:06.650Z,9.30
2018-07-25T15:38:36.967Z,10.17
2018-07-25T15:41:07.213Z,10.23
2018-07-25T15:43:37.512Z,11.33
2018-07-25T15:46:07.633Z,9.47
2018-07-25T15:48:37.894Z,10.57
2018-07-25T15:51:09.256Z,8.60
2018-07-25T15:53:39.546Z,9.70
2018-07-25T15:56:09.905Z,10.10
2018-07-25T15:58:40.353Z,11.20
2018-07-25T16:01:10.889Z,10.30
2018-07-25T16:03:41.229Z,12.53
2018-07-25T16:06:11.244Z,12.47
2018-07-25T16:08:41.615Z,17.70
2018-07-25T16:11:12.127Z,10.90
2018-07-25T16:13:42.932Z,9.70
2018-07-25T16:16:13.230Z,11.53
2018-07-25T16:18:43.662Z,10.13
2018-07-25T16:21:14.021Z,9.60
2018-07-25T16:23:44.404Z,9.17
2018-07-25T16:26:14.817Z,8.53
2018-07-25T16:28:45.526Z,10.77
2018-07-25T16:31:16.141Z,9.50
2018-07-25T16:33:46.568Z,8.80
2018-07-25T16:36:16.951Z,13.10
2018-07-25T16:38:47.341Z,18.47
2018-07-25T16:41:17.707Z,10.90
2018-07-25T16:43:48.062Z,9.40
2018-07-25T16:46:18.488Z,21.67
2018-07-25T16:48:48.495Z,11.73
2018-07-25T16:51:18.700Z,13.73
2018-07-25T20:48:43.474Z,12.83
2018-07-25T20:51:13.834Z,13.27
2018-07-25T20:53:44.107Z,11.07
2018-07-25T20:56:14.406Z,10.37
2018-07-25T20:58:44.785Z,9.37
2018-07-25T21:01:15.037Z,9.53
2018-07-25T21:03:45.346Z,10.50
2018-07-25T21:06:15.658Z,10.73
2018-07-25T21:08:45.969Z,9.30
2018-07-25T21:11:16.003Z,12.80
2018-07-25T21:13:46.255Z,10.43
2018-07-25T21:16:16.583Z,12.20
2018-07-25T21:18:46.964Z,13.60
2018-07-25T21:21:17.413Z,11.40
2018-07-25T21:23:47.669Z,10.23
2018-07-25T21:26:17.925Z,10.93
2018-07-25T21:28:48.302Z,10.37
2018-07-25T21:31:18.566Z,10.47
2018-07-25T21:33:48.964Z,10.60
2018-07-25T21:36:19.232Z,10.97
2018-07-25T21:38:49.611Z,9.90
2018-07-25T21:41:19.930Z,10.13
2018-07-25T21:43:50.222Z,10.43
2018-07-25T21:46:20.558Z,11.50
2018-07-25T21:48:50.934Z,10.10
2018-07-25T21:51:21.271Z,10.17
2018-07-25T21:53:51.566Z,10.77
2018-07-25T21:56:21.910Z,10.23
2018-07-25T21:58:52.155Z,9.53
2018-07-25T22:01:22.461Z,9.00
2018-07-25T22:03:52.727Z,9.50
2018-07-25T22:06:23.072Z,9.23
2018-07-25T22:08:53.372Z,8.60
2018-07-25T22:11:23.586Z,10.43
2018-07-25T22:13:55.066Z,10.70
2018-07-25T22:16:26.747Z,10.20
2018-07-25T22:18:56.988Z,10.07
2018-07-25T22:21:26.968Z,9.93
2018-07-25T22:23:57.175Z,10.27
2018-07-25T22:26:27.461Z,10.07
2018-07-25T22:28:57.749Z,10.53
2018-07-25T22:31:28.172Z,10.80
2018-07-25T22:33:58.487Z,10.20
2018-07-25T22:36:28.791Z,10.30
2018-07-25T22:38:59.081Z,10.27
2018-07-25T22:41:29.397Z,9.60
2018-07-25T22:43:59.686Z,10.27
2018-07-25T22:46:30.017Z,9.40
2018-07-25T22:49:00.297Z,10.07
2018-07-25T22:51:30.813Z,10.77
2018-07-25T22:54:01.133Z,11.60
2018-07-25T22:56:31.414Z,9.80
2018-07-25T22:59:01.756Z,10.27
2018-07-25T23:01:32.026Z,9.73
2018-07-25T23:04:02.254Z,9.10
2018-07-25T23:06:32.524Z,9.27
2018-07-25T23:09:02.849Z,8.87
2018-07-25T23:11:33.069Z,9.33
2018-07-25T23:14:03.362Z,9.17
2018-07-25T23:16:33.678Z,10.30
2018-07-25T23:19:03.942Z,10.50
2018-07-25T23:21:35.385Z,11.03
2018-07-25T23:24:05.654Z,11.37
2018-07-25T23:26:35.937Z,9.63
2018-07-25T23:29:06.205Z,10.90
2018-07-25T23:31:36.508Z,9.83
2018-07-25T23:34:06.833Z,9.40
2018-07-25T23:36:37.129Z,9.00
2018-07-25T23:39:09.937Z,9.43
2018-07-25T23:41:40.554Z,9.60
2018-07-25T23:44:10.807Z,10.27
2018-07-25T23:46:41.112Z,9.37
2018-07-25T23:49:11.393Z,10.77
2018-07-25T23:51:41.937Z,9.27
2018-07-25T23:54:12.226Z,10.83
2018-07-25T23:56:42.516Z,10.10
2018-07-25T23:59:12.820Z,10.77
